Leon Müller

Olheiro - Bayern Munich
4 Abr 2027
Domingo
Processo

Personalidade

Adaptabilidade (1) Ambição (19) Controvérsia (9) Lealdade (2) Pressão (19) Profissionalismo (2) Espírito Esportivo (2) Temperamento (12)

Perfil

Estilo de Treinamento Democrático
Licença Continental B
Determinação 11
Gestão de Pessoas 18
Motivação 17
Disciplina 13
Satisfação no Trabalho
59%
Fadiga
0%
Função Olheiro
Salário 76.4K p/s
Contrato 14.03.2030

Desempenho

Comportamento Bom
Eficácia do Treinamento
37%
Desenvolvimento do Jogador
35%
Prevenção de Lesões
65%
Implementação Tática
60%

Eventos Recentes

Avaliou um jogador agora
Participou de uma reunião de recrutamento agora
Participou de uma reunião de recrutamento agora
Recomendou um alvo de transferência agora
Avaliou um jogador agora
Avaliou um jogador agora
Avaliou um jogador agora
Avaliou um jogador 7d atrás

Monitorando agora

138
Jogador Clube Status Habilidade Confiança Observado Última observação Último voto
Eduardo Camavinga Real Madrid Ativo 163 / 169 40% 14 03.04.2027 -
Elliot Anderson Manchester City Ativo 158 / 157 40% 7 03.04.2027 -
Alex Scott Bournemouth Ativo 155 / 157 40% 2 03.04.2027 -
Ryan Gravenberch Liverpool Ativo 162 / 159 40% 18 02.04.2027 -
Castello Lukeba RB Leipzig Ativo 148 / 151 40% 8 02.04.2027 -
Omar El Hilali Espanyol Ativo 154 / 145 40% 4 02.04.2027 -
Gavi Barcelona Ativo 158 / 159 40% 16 01.04.2027 -
Illia Zabarnyi Paris Saint-Germain Ativo 155 / 149 40% 6 01.04.2027 -
Giorgio Scalvini Atalanta Ativo 144 / 149 40% 3 01.04.2027 -
Abdukodir Khusanov Manchester City Ativo 155 / 154 40% 4 31.03.2027 -
Kobbie Mainoo Manchester United Ativo 151 / 160 40% 4 31.03.2027 -
Pedri Barcelona Ativo 183 / 176 40% 10 31.03.2027 -
Georginio Rutter Brighton Ativo 153 / 151 40% 2 30.03.2027 -
Igor Jesus Nottingham Forest Ativo 139 / 148 40% 4 30.03.2027 -
Largie Ramazani Leeds United Ativo 136 / 139 40% 1 30.03.2027 -
Evanilson Bournemouth Ativo 155 / 149 40% 3 29.03.2027 -
Kai Havertz Arsenal Ativo 167 / 161 40% 4 29.03.2027 -
Loïs Openda Juventus Ativo 148 / 143 40% 1 29.03.2027 -
Andrés Martín Racing Santander Ativo 133 / 134 40% 2 26.03.2027 -
Thiago Brentford Ativo 141 / 150 40% 3 26.03.2027 -
João Pedro Chelsea Ativo 159 / 148 40% 1 26.03.2027 -
Nicolas Jackson Aston Villa Ativo 150 / 153 40% 3 24.03.2027 -
Isaac Romero Sevilla Ativo 146 / 140 40% 4 24.03.2027 -
Karl Etta Eyong Levante Ativo 141 / 144 40% 1 24.03.2027 -
Matheus Cunha Manchester United Ativo 156 / 159 40% 3 23.03.2027 -
Jonathan David Juventus Ativo 159 / 158 40% 3 23.03.2027 -
Maroan Sannadi Athletic Bilbao Ativo 139 / 139 40% 1 23.03.2027 -
Conor Bradley Liverpool Ativo 148 / 158 40% 7 22.03.2027 -
Victor Froholdt Porto Ativo 144 / 154 40% 3 22.03.2027 -
Nico O'Reilly Manchester City Ativo 148 / 152 40% 10 21.03.2027 -
Tino Livramento Newcastle United Ativo 153 / 159 40% 1 21.03.2027 -
Miloš Kerkez Liverpool Ativo 162 / 154 40% 10 19.03.2027 -
João Neves Paris Saint-Germain Ativo 166 / 168 40% 13 18.03.2027 -
Levi Colwill Chelsea Ativo 156 / 161 40% 14 18.03.2027 -
Morgan Rogers Chelsea Ativo 164 / 153 40% 4 16.03.2027 -
Gabriel Martinelli Arsenal Ativo 161 / 162 40% 2 16.03.2027 -
Nico Paz Como Ativo 165 / 159 40% 2 16.03.2027 -
Ferran Torres Paris Saint-Germain Ativo 164 / 163 40% 2 15.03.2027 -
Pablo Barrios Atlético Madrid Ativo 158 / 163 40% 12 13.03.2027 -
Álvaro Carreras Real Madrid Ativo 151 / 152 40% 4 13.03.2027 -
Iván Romero Levante Ativo 135 / 142 40% 3 10.03.2027 -
Rômulo RB Leipzig Ativo 140 / 145 40% 2 10.03.2027 -
Georges Mikautadze Villarreal Ativo 155 / 154 40% 2 10.03.2027 -
Jonathan Dubasin Osasuna Ativo 140 / 139 40% 2 04.03.2027 -
Ian Maatsen Aston Villa Ativo 153 / 153 40% 8 26.02.2027 -
Exequiel Palacios Ipswich Town Ativo 154 / 155 40% 6 22.02.2027 -
Alejandro Grimaldo Atlético Madrid Ativo 169 / 157 40% 8 22.02.2027 -
Lois Batshuayi Manchester United Ativo 164 / 165 40% 1 22.02.2027 -
Cesar Corona Veracruz Ativo 143 / 126 40% 2 20.02.2027 -
Tim Lemperle TSG Hoffenheim Ativo 144 / 134 40% 1 20.02.2027 Mais informações
Sven Botman Newcastle United Ativo 162 / 153 40% 8 19.02.2027 -
Boubacar Kamara Aston Villa Ativo 159 / 166 40% 7 17.02.2027 -
Bruno Fernandes Manchester United Ativo 173 / 173 40% 3 17.02.2027 -
Marcos Llorente Atlético Madrid Ativo 154 / 152 40% 1 17.02.2027 -
Joško Gvardiol Manchester City Ativo 163 / 160 40% 14 12.02.2027 -
Amadou Onana Aston Villa Ativo 161 / 153 40% 2 12.02.2027 -
Wesley Fofana Chelsea Ativo 167 / 167 40% 8 11.02.2027 -
William Saliba Arsenal Ativo 170 / 173 40% 9 11.02.2027 -
Alexis Mac Allister Liverpool Ativo 157 / 163 40% 7 10.02.2027 -
Matthijs de Ligt Manchester United Ativo 162 / 160 40% 6 09.02.2027 -
Marc Guéhi Manchester City Ativo 165 / 168 40% 7 08.02.2027 -
Peque Sevilla Ativo 138 / 144 40% 2 08.02.2027 -
Jorge Pascual Granada Ativo 138 / 138 40% 1 08.02.2027 -
Loïc Badé Bayer Leverkusen Ativo 160 / 160 40% 1 07.02.2027 -
Johnny Cardoso Atlético Madrid Ativo 152 / 158 40% 1 03.02.2027 -
Leon Goretzka Aston Villa Ativo 158 / 149 40% 1 02.02.2027 -
Rodri Barcelona Ativo 173 / 170 40% 3 25.01.2027 -
Manu Koné AS Roma Ativo 169 / 169 40% 4 25.01.2027 -
Noussair Mazraoui Manchester United Perdido 152 / 155 40% 1 25.01.2027 -
George Hirst Stoke City Ativo 136 / 128 40% 3 23.01.2027 -
Maximilian Mittelstädt VfB Stuttgart Perdido 150 / 153 72% 1 11.01.2027 -
Yuri Alberto Corinthians Ativo 149 / 148 40% 1 09.01.2027 -
Michy Fellaini KV Oostende Perdido 131 / 129 40% 1 09.01.2027 -
Rayan Cherki Manchester City Ativo 165 / 164 40% 3 07.01.2027 -
Chemsdine Talbi Sunderland Ativo 139 / 144 40% 2 07.01.2027 -
Breno Bidon Corinthians Perdido 136 / 124 40% 1 07.01.2027 -
Désiré Doué Paris Saint-Germain Ativo 163 / 170 40% 1 07.01.2027 -
Conrad Harder RB Leipzig Ativo 136 / 145 40% 1 04.01.2027 -
Ermedin Demirović VfB Stuttgart Ativo 149 / 149 72% 1 02.01.2027 Aprovar
Cesar Corona Veracruz Perdido 129 / 135 40% 1 01.01.2027 -
Santiago Castro AS Roma Ativo 145 / 149 40% 1 01.01.2027 -
Declan Rice Arsenal Ativo 184 / 192 40% 5 27.12.2026 -
Achraf Hakimi Paris Saint-Germain Ativo 179 / 186 40% 3 27.12.2026 -
Jeremie Frimpong Liverpool Ativo 159 / 153 40% 5 25.12.2026 -
Matheus Nunes Manchester City Ativo 155 / 152 40% 5 20.12.2026 -
Bruno Guimarães Arsenal Ativo 174 / 175 40% 6 18.12.2026 -
Fabián Paris Saint-Germain Perdido 170 / 160 40% 9 17.12.2026 -
Vitinha Paris Saint-Germain Ativo 176 / 177 40% 7 14.12.2026 -
Jurriën Timber Arsenal Ativo 156 / 156 40% 5 12.12.2026 -
Martín Zubimendi Arsenal Ativo 164 / 154 40% 5 07.12.2026 -
Frenkie de Jong Barcelona Ativo 171 / 158 40% 6 06.12.2026 -
Tijjani Reijnders Al-Qadisiyah Ativo 150 / 142 40% 5 02.12.2026 -
Ez Abde Betis Ativo 149 / 143 40% 1 02.12.2026 -
Willian Pacho Paris Saint-Germain Ativo 168 / 169 40% 1 26.11.2026 -
Trent Alexander-Arnold Real Madrid Ativo 167 / 161 40% 5 23.11.2026 -
Philippe Keny Zurich Ativo 121 / 120 40% 2 22.11.2026 -
Mateo Retegui Al-Qadisiyah Ativo 166 / 163 40% 3 22.11.2026 -
Gabriel Arsenal Ativo 167 / 179 40% 6 19.11.2026 -
Yorbe Vertessen Red Bull Salzburg Ativo 121 / 122 40% 2 18.11.2026 -
Brennan Johnson Everton Ativo 137 / 143 40% 1 18.11.2026 -
Khéphren Thuram Juventus Ativo 160 / 162 40% 1 14.11.2026 -
Rúben Dias Manchester City Ativo 165 / 171 40% 4 10.11.2026 -
Gonzalo Fulham Ativo 144 / 142 40% 1 10.11.2026 -
Rodrygo Real Madrid Ativo 160 / 167 40% 3 06.11.2026 -
Bryan Mbeumo Manchester United Ativo 156 / 159 40% 1 06.11.2026 -
Eric García Barcelona Ativo 159 / 163 40% 1 05.11.2026 -
Matteo di Giusto Luzern Ativo 123 / 129 40% 3 01.11.2026 -
Kevin Schade Brentford Ativo 148 / 153 40% 2 01.11.2026 -
Josias Lukembila Sion Ativo 114 / 111 40% 3 31.10.2026 -
Sandro Tonali Tottenham Ativo 170 / 179 40% 2 30.10.2026 -
Adam Wharton Crystal Palace Ativo 143 / 153 40% 1 25.10.2026 -
Aurélien Tchouaméni Real Madrid Ativo 169 / 166 40% 3 22.10.2026 -
Cristian Romero Atlético Madrid Ativo 153 / 162 40% 1 18.10.2026 -
Youri Tielemans Manchester United Ativo 156 / 159 40% 6 16.10.2026 -
Petter Nosa Dahl Rapid Wien Ativo 127 / 132 40% 1 13.10.2026 -
Roberto Fernández Braga Ativo 132 / 133 40% 1 08.10.2026 -
Jean-Luc Morin Tours Ativo 140 / 134 40% 1 05.10.2026 -
Scott McTominay Napoli Ativo 167 / 162 40% 3 03.10.2026 -
Jules Koundé Barcelona Ativo 164 / 159 40% 1 01.10.2026 -
Talles Magno New York City Ativo 136 / 144 40% 1 01.10.2026 -
Nicolò Rovella Lazio Ativo 149 / 154 40% 1 26.09.2026 -
Ousmane Diomande Nottingham Forest Ativo 144 / 157 40% 1 22.09.2026 -
Ibrahima Konaté Real Madrid Ativo 153 / 152 40% 1 22.09.2026 -
Enzo Fernández Chelsea Ativo 171 / 160 40% 1 19.09.2026 -
Denzel Dumfries Real Madrid Ativo 152 / 149 40% 1 16.09.2026 -
Murillo Nottingham Forest Ativo 153 / 149 40% 2 12.09.2026 -
Nuno Mendes Paris Saint-Germain Ativo 164 / 166 40% 2 12.09.2026 -
Éder Militão Real Madrid Ativo 161 / 166 40% 1 10.09.2026 -
Federico Dimarco Inter Ativo 157 / 161 40% 1 08.09.2026 -
Nico González Newcastle United Ativo 152 / 168 40% 1 07.09.2026 -
Zinho Meunier KV Oostende Ativo 158 / 154 40% 1 03.09.2026 -
Alessandro Bastoni Inter Ativo 168 / 168 40% 1 25.08.2026 -
Mateus Mané Manchester United Ativo 132 / 135 40% 1 23.08.2026 -
Endrick Real Madrid Ativo 136 / 149 40% 1 23.08.2026 -
Antoni Milambo Brentford Ativo 132 / 136 40% 1 22.08.2026 -
Lewis Hall Newcastle United Ativo 145 / 143 40% 1 02.08.2026 -
Johan Manzambi Aston Villa Ativo 132 / 155 40% 1 02.08.2026 -
Ademola Lookman Atlético Madrid Ativo 154 / 162 40% 1 01.08.2026 -